Terminal Aerodrome Forecast
Issued by NWS Twin Cities, MN

Home | Current Version | Previous Version | Text Only | Print | Product List | Glossary On
Versions: 1 2 3 4 5 6 7 8 9 10 11 12 13 14 15 16 17 18 19 20 21 22 23 24 25 26 27 28 29 30 31 32 33 34
000
FTUS43 KMPX 152327
TAFMSP
TAF
KMSP 152327Z 1600/1706 VRB03KT 5SM -SHSN SCT015 OVC030
      TEMPO 1600/1604 2SM -SN BKN015
     FM160400 11004KT P6SM VCSH OVC025
     FM160800 10004KT P6SM OVC025
     FM170300 VRB03KT P6SM OVC020=

USA.gov is the U.S. government's official web portal to all federal, state and local government web resources and services.